createdAt,value
2023-12-12T00:00:52.654Z,18.60
2023-12-12T00:03:39.685Z,18.90
2023-12-12T00:06:08.700Z,18.30
2023-12-12T00:08:36.812Z,19.00
2023-12-12T00:11:06.126Z,18.60
2023-12-12T00:13:34.615Z,20.10
2023-12-12T00:16:02.751Z,20.00
2023-12-12T00:18:34.041Z,17.70
2023-12-12T00:21:04.021Z,20.30
2023-12-12T00:23:32.357Z,19.90
2023-12-12T00:26:00.532Z,18.50
2023-12-12T00:28:28.818Z,20.50
2023-12-12T00:30:57.278Z,18.90
2023-12-12T00:33:25.443Z,19.00
2023-12-12T00:35:53.829Z,19.00
2023-12-12T00:38:29.591Z,20.40
2023-12-12T00:40:58.029Z,21.70
2023-12-12T00:43:26.330Z,21.50
2023-12-12T00:45:54.671Z,19.60
2023-12-12T00:48:23.759Z,19.50
2023-12-12T00:50:52.438Z,21.00
2023-12-12T00:53:21.317Z,20.80
2023-12-12T00:55:49.610Z,20.60
2023-12-12T00:58:17.739Z,19.10
2023-12-12T01:00:45.860Z,20.20
2023-12-12T01:03:14.094Z,21.10
2023-12-12T01:05:42.341Z,19.80
2023-12-12T01:08:10.766Z,21.10
2023-12-12T01:10:38.863Z,20.40
2023-12-12T01:13:07.008Z,21.20
2023-12-12T01:15:35.232Z,20.70
2023-12-12T01:18:03.488Z,19.50
2023-12-12T01:20:31.763Z,19.90
2023-12-12T01:22:59.814Z,19.20
2023-12-12T01:25:28.966Z,20.00
2023-12-12T01:27:57.222Z,20.90
2023-12-12T01:30:25.352Z,19.40
2023-12-12T01:32:53.525Z,19.50
2023-12-12T01:35:21.644Z,21.70
2023-12-12T01:37:49.872Z,19.90
2023-12-12T01:40:18.036Z,20.40
2023-12-12T01:42:46.201Z,20.30
2023-12-12T01:45:15.976Z,19.20
2023-12-12T01:47:45.466Z,18.50
2023-12-12T01:50:13.590Z,20.90
2023-12-12T01:52:41.777Z,20.70
2023-12-12T01:55:12.498Z,19.20
2023-12-12T01:57:41.418Z,19.50
2023-12-12T02:00:10.632Z,19.70
2023-12-12T02:02:40.385Z,18.60
2023-12-12T02:05:08.931Z,19.20
2023-12-12T02:07:37.777Z,19.40
2023-12-12T02:10:06.151Z,20.70
2023-12-12T02:12:34.282Z,19.80
2023-12-12T02:15:02.464Z,21.90
2023-12-12T02:17:30.980Z,22.20
2023-12-12T02:19:59.575Z,22.20
2023-12-12T02:22:27.962Z,20.80
2023-12-12T02:24:56.251Z,23.50
2023-12-12T02:27:24.414Z,21.60
2023-12-12T02:29:52.621Z,21.80
2023-12-12T02:32:20.825Z,21.40
2023-12-12T02:34:49.484Z,21.90
2023-12-12T02:37:18.071Z,22.60
2023-12-12T02:39:46.190Z,21.60
2023-12-12T02:42:14.394Z,21.90
2023-12-12T02:44:42.502Z,20.80
2023-12-12T02:47:10.629Z,21.20
2023-12-12T02:49:38.892Z,21.20
2023-12-12T02:52:07.209Z,24.10
2023-12-12T02:54:35.432Z,22.90
2023-12-12T02:57:03.561Z,21.00
2023-12-12T02:59:31.822Z,20.40
2023-12-12T03:01:59.946Z,21.60
2023-12-12T03:04:30.234Z,21.20
2023-12-12T03:06:59.101Z,22.00
2023-12-12T03:09:27.171Z,21.70
2023-12-12T03:11:57.080Z,23.80
2023-12-12T03:14:28.322Z,20.90
2023-12-12T03:16:56.913Z,20.90
2023-12-12T03:19:25.750Z,20.30
2023-12-12T03:21:55.333Z,22.50
2023-12-12T03:24:23.448Z,20.80
2023-12-12T03:26:51.643Z,20.40
2023-12-12T03:29:19.847Z,20.20
2023-12-12T03:31:48.022Z,20.30
2023-12-12T03:34:16.236Z,18.30
2023-12-12T03:36:44.795Z,17.90
2023-12-12T03:39:13.029Z,18.20
2023-12-12T03:41:41.222Z,17.40
2023-12-12T03:44:09.383Z,15.20
2023-12-12T03:46:37.568Z,14.50
2023-12-12T03:49:06.405Z,16.40
2023-12-12T03:51:34.748Z,15.40
2023-12-12T03:54:02.845Z,14.10
2023-12-12T03:56:31.001Z,15.10
2023-12-12T03:59:02.199Z,14.80
2023-12-12T04:01:30.424Z,16.60
2023-12-12T04:03:59.212Z,17.10
2023-12-12T04:06:27.428Z,15.70
2023-12-12T04:08:55.652Z,16.50
2023-12-12T04:11:23.696Z,15.00
2023-12-12T04:13:52.472Z,14.70
2023-12-12T04:16:20.702Z,13.60
2023-12-12T04:18:50.169Z,13.80
2023-12-12T04:21:18.403Z,14.90
2023-12-12T04:23:46.524Z,14.10
2023-12-12T04:26:14.635Z,14.10
2023-12-12T04:28:42.804Z,13.50
2023-12-12T04:31:14.918Z,14.70
2023-12-12T04:33:43.204Z,13.50
2023-12-12T04:36:14.537Z,13.70
2023-12-12T04:38:43.075Z,14.80
2023-12-12T04:41:11.221Z,12.70
2023-12-12T04:43:39.402Z,15.20
2023-12-12T04:46:07.701Z,15.70
2023-12-12T04:48:37.036Z,19.00
2023-12-12T04:51:05.570Z,16.60
2023-12-12T04:53:33.747Z,15.60
2023-12-12T04:56:01.848Z,17.40
2023-12-12T04:58:30.849Z,18.20
2023-12-12T05:00:59.182Z,17.70
2023-12-12T05:03:27.475Z,18.00
2023-12-12T05:05:55.604Z,17.60
2023-12-12T05:08:23.760Z,20.50
2023-12-12T05:10:51.927Z,22.00
2023-12-12T05:13:20.210Z,20.50
2023-12-12T05:15:48.593Z,20.60
2023-12-12T05:18:17.872Z,21.40
2023-12-12T05:20:46.155Z,19.00
2023-12-12T05:23:14.286Z,21.70
2023-12-12T05:25:42.775Z,20.60
2023-12-12T05:28:11.432Z,19.80
2023-12-12T05:30:40.982Z,17.60
2023-12-12T05:33:09.598Z,21.00
2023-12-12T05:35:37.813Z,21.50
2023-12-12T05:38:08.128Z,22.60
2023-12-12T05:40:37.022Z,21.60
2023-12-12T05:43:05.360Z,21.10
2023-12-12T05:45:34.142Z,19.50
2023-12-12T05:48:04.844Z,22.00
2023-12-12T05:50:34.140Z,20.80
2023-12-12T05:53:02.407Z,20.90
2023-12-12T05:55:31.194Z,21.00
2023-12-12T05:57:59.568Z,19.40
2023-12-12T06:00:30.892Z,21.20
2023-12-12T06:02:59.363Z,19.90
2023-12-12T06:05:27.990Z,21.00
2023-12-12T06:07:56.230Z,20.00
2023-12-12T06:10:25.485Z,21.30
2023-12-12T06:12:54.869Z,21.90
2023-12-12T06:15:22.967Z,21.60
2023-12-12T06:17:51.168Z,20.20
2023-12-12T06:20:19.405Z,20.50
2023-12-12T06:22:47.611Z,19.40
2023-12-12T06:25:15.734Z,20.90
2023-12-12T06:27:43.899Z,17.70
2023-12-12T06:30:12.729Z,20.20
2023-12-12T06:32:41.435Z,18.40
2023-12-12T06:35:09.752Z,20.60
2023-12-12T06:37:40.511Z,19.90
2023-12-12T06:40:13.289Z,20.40
2023-12-12T06:42:43.557Z,19.60
2023-12-12T06:45:11.831Z,20.20
2023-12-12T06:47:40.146Z,18.60
2023-12-12T06:50:09.163Z,18.90
2023-12-12T06:52:38.608Z,17.70
2023-12-12T06:55:07.095Z,17.10
2023-12-12T06:57:40.142Z,19.20
2023-12-12T07:00:09.125Z,20.20
2023-12-12T07:02:38.004Z,23.10
2023-12-12T07:05:06.298Z,22.80
2023-12-12T07:07:34.856Z,19.90
2023-12-12T07:10:07.774Z,21.90
2023-12-12T07:12:37.600Z,20.50
2023-12-12T07:15:06.047Z,20.10
2023-12-12T07:17:34.620Z,20.30
2023-12-12T07:20:03.642Z,20.70
2023-12-12T07:22:32.379Z,20.80
2023-12-12T07:25:01.423Z,20.20
2023-12-12T07:27:30.865Z,21.50
2023-12-12T07:30:00.654Z,21.50
2023-12-12T07:32:28.826Z,20.00
2023-12-12T07:34:57.187Z,20.00
2023-12-12T07:37:25.573Z,18.90
2023-12-12T07:39:53.737Z,17.90
2023-12-12T07:42:21.864Z,19.10
2023-12-12T07:44:50.765Z,18.70
2023-12-12T07:47:20.957Z,18.30
2023-12-12T07:49:51.759Z,17.80
2023-12-12T07:52:20.034Z,17.80
2023-12-12T07:54:48.156Z,15.70
2023-12-12T07:57:16.949Z,15.10
2023-12-12T07:59:46.185Z,15.20
2023-12-12T08:02:14.316Z,16.50
2023-12-12T08:04:42.600Z,14.80
2023-12-12T08:07:10.833Z,14.70
2023-12-12T08:09:38.929Z,14.60
2023-12-12T08:12:07.323Z,13.90
2023-12-12T08:14:35.417Z,14.80
2023-12-12T08:17:04.055Z,14.80
2023-12-12T08:19:32.466Z,14.50
2023-12-12T08:22:00.676Z,15.00
2023-12-12T08:24:29.002Z,13.00
2023-12-12T08:26:57.140Z,15.00
2023-12-12T08:29:25.250Z,15.00
2023-12-12T08:31:53.878Z,15.50
2023-12-12T08:34:22.078Z,16.80
2023-12-12T08:36:51.464Z,19.00
2023-12-12T08:39:19.637Z,17.90
2023-12-12T08:41:47.701Z,16.60
2023-12-12T08:44:15.761Z,15.70
2023-12-12T08:46:45.457Z,15.70
2023-12-12T08:49:14.207Z,15.00
2023-12-12T08:51:45.867Z,14.40
2023-12-12T08:54:14.767Z,13.70
2023-12-12T08:56:46.769Z,15.00
2023-12-12T08:59:19.797Z,15.70
2023-12-12T09:01:48.606Z,21.70
2023-12-12T09:04:18.662Z,17.10
2023-12-12T09:06:47.506Z,17.00
2023-12-12T09:09:16.068Z,18.50
2023-12-12T09:11:46.877Z,20.90
2023-12-12T09:14:17.279Z,16.30
2023-12-12T09:16:46.147Z,15.80
2023-12-12T09:19:17.353Z,14.80
2023-12-12T09:21:45.968Z,16.30
2023-12-12T09:24:14.524Z,17.60
2023-12-12T09:26:42.794Z,17.50
2023-12-12T09:29:13.908Z,21.10
2023-12-12T09:31:42.708Z,24.00
2023-12-12T09:34:11.292Z,21.50
2023-12-12T09:36:39.743Z,19.70
2023-12-12T09:39:08.762Z,21.50
2023-12-12T09:41:37.151Z,19.90
2023-12-12T09:44:05.585Z,16.50
2023-12-12T09:46:35.543Z,17.80
2023-12-12T09:49:07.761Z,20.20
2023-12-12T09:51:36.491Z,18.00
2023-12-12T09:54:08.583Z,19.70
2023-12-12T09:56:38.360Z,20.70
2023-12-12T09:59:09.685Z,18.60
2023-12-12T10:01:38.151Z,17.90
2023-12-12T10:04:08.101Z,20.20
2023-12-12T10:06:37.094Z,18.70
2023-12-12T10:09:05.369Z,20.50
2023-12-12T10:11:33.983Z,20.40
2023-12-12T10:14:02.781Z,19.30
2023-12-12T10:16:33.953Z,17.70
2023-12-12T10:19:03.391Z,19.10
2023-12-12T10:21:31.968Z,17.70
2023-12-12T10:24:00.380Z,17.70
2023-12-12T10:26:31.356Z,16.90
2023-12-12T10:29:01.196Z,18.10
2023-12-12T10:31:29.638Z,16.60
2023-12-12T10:33:59.091Z,17.20
2023-12-12T10:36:28.949Z,16.40
2023-12-12T10:39:12.041Z,15.30
2023-12-12T10:41:42.712Z,15.20
2023-12-12T10:44:11.147Z,16.80
2023-12-12T10:46:41.693Z,17.20
2023-12-12T10:49:12.359Z,19.50
2023-12-12T10:51:41.060Z,19.70
2023-12-12T10:54:09.301Z,17.70
2023-12-12T10:56:39.344Z,17.40
2023-12-12T10:59:55.782Z,15.40
2023-12-12T11:01:56.509Z,15.60
2023-12-12T11:04:25.667Z,15.30
2023-12-12T11:06:54.716Z,14.40
2023-12-12T11:09:22.980Z,14.90
2023-12-12T11:11:52.583Z,16.10
2023-12-12T11:14:22.473Z,18.20
2023-12-12T11:16:52.153Z,17.70
2023-12-12T11:19:20.893Z,16.90
2023-12-12T11:21:50.285Z,15.60
2023-12-12T11:24:19.314Z,16.90
2023-12-12T11:26:51.853Z,14.70
2023-12-12T11:29:25.035Z,16.90
2023-12-12T11:32:03.568Z,16.50
2023-12-12T11:34:41.222Z,15.90
2023-12-12T11:37:10.476Z,15.60
2023-12-12T11:39:56.186Z,15.60
2023-12-12T11:42:27.784Z,16.60
2023-12-12T11:44:56.947Z,18.10
2023-12-12T11:47:26.036Z,15.90
2023-12-12T11:50:13.280Z,17.50
2023-12-12T11:52:41.461Z,16.70
2023-12-12T11:55:18.502Z,16.70
2023-12-12T11:57:47.034Z,16.40
2023-12-12T12:00:15.873Z,15.30
2023-12-12T12:02:45.133Z,16.10
2023-12-12T12:05:13.977Z,16.10
2023-12-12T12:07:42.471Z,15.60
2023-12-12T12:10:10.907Z,14.80
2023-12-12T12:12:39.419Z,14.40
2023-12-12T12:15:10.084Z,15.60
2023-12-12T12:17:39.384Z,16.00
2023-12-12T12:20:08.849Z,16.80
2023-12-12T12:22:40.788Z,16.20
2023-12-12T12:25:09.550Z,16.20
2023-12-12T12:27:55.665Z,17.70
2023-12-12T12:30:25.292Z,18.70
2023-12-12T12:33:04.158Z,16.20
2023-12-12T12:35:32.990Z,18.80
2023-12-12T12:38:01.478Z,17.30
2023-12-12T12:40:34.928Z,18.30
2023-12-12T12:43:06.453Z,16.60
2023-12-12T12:45:35.104Z,18.00
2023-12-12T12:48:03.674Z,18.30
2023-12-12T12:50:32.217Z,16.00
2023-12-12T12:53:00.537Z,16.10
2023-12-12T12:55:28.844Z,17.40
2023-12-12T12:57:57.429Z,16.30
2023-12-12T13:00:27.722Z,17.80
2023-12-12T13:02:59.279Z,16.40
2023-12-12T13:05:29.588Z,15.70
2023-12-12T13:07:57.972Z,15.80
2023-12-12T13:10:39.074Z,15.30
2023-12-12T13:13:14.608Z,15.50
2023-12-12T13:15:42.856Z,16.50
2023-12-12T13:18:11.321Z,17.00
2023-12-12T13:20:41.538Z,15.30
2023-12-12T13:23:09.781Z,16.40
2023-12-12T13:25:38.715Z,16.00
2023-12-12T13:28:07.396Z,14.50
2023-12-12T13:30:36.241Z,15.00
2023-12-12T13:33:07.516Z,18.10
2023-12-12T13:35:37.830Z,14.90
2023-12-12T13:38:06.827Z,16.10
2023-12-12T13:40:35.459Z,16.70
2023-12-12T13:43:04.170Z,15.40
2023-12-12T13:45:33.483Z,17.80
2023-12-12T13:48:01.904Z,18.30
2023-12-12T13:50:32.571Z,16.40
2023-12-12T13:53:01.046Z,14.20
2023-12-12T13:55:29.717Z,12.20
2023-12-12T13:57:59.133Z,9.90
2023-12-12T14:00:28.761Z,8.50
2023-12-12T14:02:57.398Z,9.50
2023-12-12T14:05:28.970Z,14.40
2023-12-12T14:07:58.058Z,16.80
2023-12-12T14:10:26.972Z,13.30
2023-12-12T14:12:55.304Z,10.70
2023-12-12T14:15:24.720Z,10.10
2023-12-12T14:17:53.415Z,9.40
2023-12-12T14:20:22.232Z,9.40
2023-12-12T14:25:22.314Z,16.20
2023-12-12T14:27:50.511Z,15.00
2023-12-12T14:30:20.316Z,14.90
2023-12-12T14:32:48.776Z,14.00
2023-12-12T14:35:19.092Z,10.50
2023-12-12T14:37:47.269Z,11.70
2023-12-12T14:40:15.577Z,8.50
2023-12-12T14:42:46.402Z,9.70
2023-12-12T14:45:17.387Z,8.80
2023-12-12T14:47:48.845Z,9.20
2023-12-12T14:50:17.378Z,10.50
2023-12-12T14:52:46.103Z,9.60
2023-12-12T14:55:16.121Z,10.50
2023-12-12T14:57:44.922Z,16.60
2023-12-12T15:00:23.735Z,21.10
2023-12-12T15:02:57.629Z,26.10
2023-12-12T15:05:26.328Z,30.20
2023-12-12T15:07:55.337Z,32.10
2023-12-12T15:10:23.813Z,32.20
2023-12-12T15:12:52.596Z,35.90
2023-12-12T15:15:21.152Z,32.40
2023-12-12T15:17:52.811Z,28.60
2023-12-12T15:20:27.897Z,28.60
2023-12-12T15:22:58.313Z,26.10
2023-12-12T15:25:32.157Z,22.60
2023-12-12T15:28:24.263Z,24.50
2023-12-12T15:30:57.763Z,20.30
2023-12-12T15:33:27.533Z,19.20
2023-12-12T15:35:57.482Z,18.10
2023-12-12T15:38:27.046Z,17.70
2023-12-12T15:40:55.285Z,17.20
2023-12-12T15:43:23.651Z,21.00
2023-12-12T15:45:53.444Z,22.80
2023-12-12T15:48:22.371Z,23.70
2023-12-12T15:50:50.895Z,22.80
2023-12-12T15:53:19.146Z,22.40
2023-12-12T15:55:47.392Z,20.80
2023-12-12T15:58:15.797Z,24.20
2023-12-12T16:00:44.670Z,18.00
2023-12-12T16:03:13.925Z,20.20
2023-12-12T16:05:43.379Z,18.80
2023-12-12T16:08:13.825Z,18.20
2023-12-12T16:10:42.173Z,19.20
2023-12-12T16:13:10.598Z,20.40
2023-12-12T16:15:38.987Z,18.20
2023-12-12T16:18:07.787Z,17.70
2023-12-12T16:20:35.996Z,15.30
2023-12-12T16:23:04.449Z,13.50
2023-12-12T16:25:32.872Z,14.00
2023-12-12T16:28:02.770Z,14.60
2023-12-12T16:30:32.361Z,14.40
2023-12-12T16:33:05.129Z,17.70
2023-12-12T16:35:33.633Z,23.00
2023-12-12T16:38:01.956Z,18.90
2023-12-12T16:40:31.464Z,20.20
2023-12-12T16:43:01.652Z,22.10
2023-12-12T16:45:30.124Z,22.20
2023-12-12T16:47:58.544Z,20.40
2023-12-12T16:50:26.843Z,19.30
2023-12-12T16:52:55.404Z,17.60
2023-12-12T16:55:23.683Z,21.10
2023-12-12T16:57:52.164Z,21.70
2023-12-12T17:00:20.526Z,21.60
2023-12-12T17:02:49.101Z,20.60
2023-12-12T17:05:18.211Z,20.70
2023-12-12T17:07:46.972Z,20.00
2023-12-12T17:10:15.728Z,21.60
2023-12-12T17:12:44.676Z,19.10
2023-12-12T17:15:13.142Z,17.60
2023-12-12T17:17:41.406Z,16.40
2023-12-12T17:20:11.973Z,16.90
2023-12-12T17:22:40.425Z,16.20
2023-12-12T17:25:09.771Z,16.20
2023-12-12T17:27:38.237Z,16.50
2023-12-12T17:30:10.550Z,17.30
2023-12-12T17:32:39.152Z,17.20
2023-12-12T17:35:09.390Z,17.40
2023-12-12T17:37:41.797Z,16.40
2023-12-12T17:40:11.163Z,17.30
2023-12-12T17:42:40.689Z,18.60
2023-12-12T17:45:09.615Z,17.40
2023-12-12T17:47:41.496Z,17.30
2023-12-12T17:50:10.133Z,18.00
2023-12-12T17:52:38.623Z,17.10
2023-12-12T17:55:07.335Z,19.40
2023-12-12T17:57:35.887Z,16.70
2023-12-12T18:00:04.789Z,18.10
2023-12-12T18:02:41.738Z,19.10
2023-12-12T18:05:12.124Z,18.40
2023-12-12T18:07:41.904Z,19.40
2023-12-12T18:10:11.880Z,18.10
2023-12-12T18:12:41.776Z,18.40
2023-12-12T18:15:10.692Z,17.70
2023-12-12T18:17:39.867Z,19.80
2023-12-12T18:20:10.050Z,19.80
2023-12-12T18:22:39.714Z,20.60
2023-12-12T18:25:09.079Z,20.00
2023-12-12T18:27:38.830Z,20.50
2023-12-12T18:30:10.748Z,22.00
2023-12-12T18:32:39.597Z,22.40
2023-12-12T18:35:08.796Z,21.60
2023-12-12T18:37:38.941Z,21.50
2023-12-12T18:40:09.154Z,20.60
2023-12-12T18:42:37.849Z,20.20
2023-12-12T18:45:06.493Z,19.80
2023-12-12T18:47:35.177Z,21.00
2023-12-12T18:50:08.125Z,19.90
2023-12-12T18:52:36.557Z,19.70
2023-12-12T18:55:05.956Z,20.50
2023-12-12T18:57:34.666Z,20.60
2023-12-12T19:00:11.230Z,19.70
2023-12-12T19:02:43.239Z,20.70
2023-12-12T19:05:12.944Z,20.90
2023-12-12T19:07:44.544Z,20.70
2023-12-12T19:10:13.364Z,20.60
2023-12-12T19:12:47.833Z,22.60
2023-12-12T19:15:22.153Z,21.90
2023-12-12T19:17:50.482Z,22.30
2023-12-12T19:20:19.698Z,17.00
2023-12-12T19:22:49.035Z,21.30
2023-12-12T19:25:17.801Z,19.70
2023-12-12T19:27:46.673Z,22.80
2023-12-12T19:30:16.715Z,19.80
2023-12-12T19:32:44.918Z,20.90
2023-12-12T19:35:14.815Z,21.10
2023-12-12T19:37:45.692Z,21.60
2023-12-12T19:40:14.195Z,21.70
2023-12-12T19:42:43.923Z,20.70
2023-12-12T19:45:12.758Z,20.50
2023-12-12T19:47:41.048Z,22.10
2023-12-12T19:50:09.807Z,21.80
2023-12-12T19:52:38.369Z,23.30
2023-12-12T19:55:07.344Z,21.70
2023-12-12T19:57:35.872Z,22.00
2023-12-12T20:00:06.464Z,21.30
2023-12-12T20:02:39.946Z,15.90
2023-12-12T20:05:08.985Z,21.60
2023-12-12T20:07:37.573Z,21.60
2023-12-12T20:10:06.494Z,20.90
2023-12-12T20:12:34.732Z,19.20
2023-12-12T20:15:04.423Z,24.50
2023-12-12T20:17:33.301Z,23.30
2023-12-12T20:20:02.556Z,26.20
2023-12-12T20:22:31.867Z,24.20
2023-12-12T20:24:59.987Z,24.10
2023-12-12T20:27:31.687Z,24.00
2023-12-12T20:30:00.000Z,23.10
2023-12-12T20:32:28.520Z,23.30
2023-12-12T20:34:57.280Z,23.80
2023-12-12T20:37:25.454Z,24.80
2023-12-12T20:39:53.832Z,24.90
2023-12-12T20:42:22.744Z,24.20
2023-12-12T20:44:54.975Z,21.60
2023-12-12T20:47:24.258Z,21.90
2023-12-12T20:49:52.647Z,24.80
2023-12-12T20:52:21.140Z,23.70
2023-12-12T20:54:52.153Z,22.70
2023-12-12T20:57:23.316Z,21.70
2023-12-12T20:59:51.561Z,26.70
2023-12-12T21:02:21.195Z,24.60
2023-12-12T21:04:50.699Z,25.80
2023-12-12T21:07:20.680Z,18.50
2023-12-12T21:09:49.077Z,25.30
2023-12-12T21:12:17.401Z,24.60
2023-12-12T21:14:46.297Z,17.90
2023-12-12T21:17:14.546Z,26.10
2023-12-12T21:19:43.825Z,27.40
2023-12-12T21:22:12.042Z,21.80
2023-12-12T21:24:40.408Z,23.80
2023-12-12T21:27:08.963Z,25.10
2023-12-12T21:29:37.227Z,25.50
2023-12-12T21:32:05.567Z,23.80
2023-12-12T21:34:33.727Z,25.70
2023-12-12T21:37:01.967Z,27.10
2023-12-12T21:39:30.095Z,25.60
2023-12-12T21:41:58.519Z,26.70
2023-12-12T21:44:26.884Z,23.40
2023-12-12T21:46:55.675Z,25.10
2023-12-12T21:49:23.994Z,25.70
2023-12-12T21:51:52.489Z,25.40
2023-12-12T21:54:20.585Z,24.30
2023-12-12T21:56:48.738Z,25.70
2023-12-12T21:59:16.944Z,25.50
2023-12-12T22:01:49.623Z,23.60
2023-12-12T22:04:19.338Z,26.90
2023-12-12T22:06:48.531Z,26.00
2023-12-12T22:09:20.156Z,27.10
2023-12-12T22:11:48.343Z,27.50
2023-12-12T22:14:16.839Z,26.10
2023-12-12T22:16:44.939Z,27.00
2023-12-12T22:19:13.152Z,24.00
2023-12-12T22:21:41.318Z,25.90
2023-12-12T22:24:09.430Z,28.30
2023-12-12T22:26:38.787Z,27.40
2023-12-12T22:29:07.936Z,26.90
2023-12-12T22:31:39.797Z,26.50
2023-12-12T22:34:08.027Z,26.50
2023-12-12T22:36:36.332Z,26.60
2023-12-12T22:39:12.061Z,24.70
2023-12-12T22:41:44.829Z,28.00
2023-12-12T22:44:13.790Z,25.60
2023-12-12T22:46:42.037Z,27.80
2023-12-12T22:49:10.293Z,28.00
2023-12-12T22:51:39.126Z,28.10
2023-12-12T22:54:08.216Z,24.90
2023-12-12T22:56:36.342Z,27.20
2023-12-12T22:59:04.467Z,29.30
2023-12-12T23:01:33.105Z,28.10
2023-12-12T23:04:01.887Z,27.50
2023-12-12T23:06:30.483Z,28.00
2023-12-12T23:08:58.845Z,28.00
2023-12-12T23:11:26.963Z,26.70
2023-12-12T23:13:55.959Z,24.70
2023-12-12T23:16:24.299Z,25.30
2023-12-12T23:18:52.487Z,27.90
2023-12-12T23:21:22.049Z,26.40
2023-12-12T23:23:50.553Z,26.80
2023-12-12T23:26:18.771Z,25.50
2023-12-12T23:28:47.349Z,26.10
2023-12-12T23:31:15.686Z,28.00
2023-12-12T23:33:44.301Z,27.30
2023-12-12T23:36:12.794Z,24.40
2023-12-12T23:38:40.937Z,24.80
2023-12-12T23:41:09.012Z,25.30
2023-12-12T23:43:37.367Z,26.20
2023-12-12T23:46:05.724Z,26.90
2023-12-12T23:48:34.000Z,25.80
2023-12-12T23:51:02.485Z,25.10
2023-12-12T23:53:34.605Z,24.50
2023-12-12T23:56:03.080Z,27.80
2023-12-12T23:58:31.411Z,25.90
